createdAt,value
2023-05-26T00:03:13.861Z,100.00
2023-05-26T00:07:17.308Z,100.00
2023-05-26T00:11:18.856Z,100.00
2023-05-26T00:15:20.428Z,100.00
2023-05-26T00:19:22.426Z,100.00
2023-05-26T00:23:23.957Z,100.00
2023-05-26T00:27:25.886Z,100.00
2023-05-26T00:31:27.438Z,100.00
2023-05-26T00:35:28.968Z,100.00
2023-05-26T00:39:31.176Z,100.00
2023-05-26T00:43:32.610Z,100.00
2023-05-26T00:47:34.099Z,100.00
2023-05-26T00:51:35.754Z,100.00
2023-05-26T00:55:37.221Z,100.00
2023-05-26T00:59:39.088Z,100.00
2023-05-26T01:03:40.611Z,100.00
2023-05-26T01:07:43.763Z,100.00
2023-05-26T01:12:14.672Z,100.00
2023-05-26T01:16:19.764Z,100.00
2023-05-26T01:20:27.792Z,100.00
2023-05-26T01:24:53.470Z,100.00
2023-05-26T01:29:22.429Z,100.00
2023-05-26T01:33:28.823Z,100.00
2023-05-26T01:37:30.780Z,100.00
2023-05-26T01:41:47.714Z,100.00
2023-05-26T01:46:06.466Z,100.00
2023-05-26T01:50:09.863Z,100.00
2023-05-26T01:54:12.801Z,100.00
2023-05-26T01:58:16.062Z,100.00
2023-05-26T02:02:17.505Z,100.00
2023-05-26T02:06:19.265Z,100.00
2023-05-26T02:10:20.797Z,100.00
2023-05-26T02:14:22.249Z,100.00
2023-05-26T02:18:23.706Z,100.00
2023-05-26T02:22:25.545Z,100.00
2023-05-26T02:26:27.149Z,100.00
2023-05-26T02:30:28.636Z,100.00
2023-05-26T02:34:30.157Z,100.00
2023-05-26T02:38:31.614Z,100.00
2023-05-26T02:42:33.083Z,100.00
2023-05-26T02:46:34.537Z,100.00
2023-05-26T02:50:36.036Z,100.00
2023-05-26T02:54:37.531Z,100.00
2023-05-26T02:58:39.357Z,100.00
2023-05-26T03:02:41.254Z,100.00
2023-05-26T03:06:43.069Z,100.00
2023-05-26T03:10:45.107Z,100.00
2023-05-26T03:14:46.569Z,100.00
2023-05-26T03:18:48.046Z,100.00
2023-05-26T03:22:53.116Z,100.00
2023-05-26T03:26:54.663Z,100.00
2023-05-26T03:30:57.233Z,100.00
2023-05-26T03:34:58.708Z,100.00
2023-05-26T03:39:00.381Z,100.00
2023-05-26T03:43:02.685Z,100.00
2023-05-26T03:47:04.316Z,100.00
2023-05-26T03:51:05.995Z,100.00
2023-05-26T03:55:10.665Z,100.00
2023-05-26T03:59:12.147Z,100.00
2023-05-26T04:03:14.209Z,100.00
2023-05-26T04:07:16.033Z,100.00
2023-05-26T04:11:18.536Z,100.00
2023-05-26T04:15:20.059Z,100.00
2023-05-26T04:19:21.562Z,100.00
2023-05-26T04:23:23.205Z,100.00
2023-05-26T04:27:25.572Z,100.00
2023-05-26T04:31:30.093Z,100.00
2023-05-26T04:35:31.653Z,100.00
2023-05-26T04:39:33.118Z,100.00
2023-05-26T04:43:37.849Z,100.00
2023-05-26T04:47:39.500Z,100.00
2023-05-26T04:51:41.057Z,100.00
2023-05-26T04:55:42.519Z,100.00
2023-05-26T04:59:45.044Z,100.00
2023-05-26T05:03:46.520Z,100.00
2023-05-26T05:07:51.768Z,100.00
2023-05-26T05:11:53.282Z,100.00
2023-05-26T05:15:54.759Z,100.00
2023-05-26T05:20:10.128Z,100.00
2023-05-26T05:24:15.630Z,100.00
2023-05-26T05:28:17.112Z,100.00
2023-05-26T05:32:18.907Z,100.00
2023-05-26T05:36:20.626Z,100.00
2023-05-26T05:40:22.097Z,100.00
2023-05-26T05:44:23.571Z,100.00
2023-05-26T05:48:25.013Z,100.00
2023-05-26T05:52:26.460Z,100.00
2023-05-26T05:56:27.925Z,100.00
2023-05-26T06:00:29.487Z,100.00
2023-05-26T06:04:31.278Z,100.00
2023-05-26T06:08:32.802Z,100.00
2023-05-26T06:12:34.291Z,100.00
2023-05-26T06:16:35.888Z,100.00
2023-05-26T06:20:37.520Z,100.00
2023-05-26T06:24:39.056Z,100.00
2023-05-26T06:28:43.453Z,100.00
2023-05-26T06:32:44.973Z,100.00
2023-05-26T06:36:46.694Z,100.00
2023-05-26T06:40:51.198Z,100.00
2023-05-26T06:44:54.662Z,100.00
2023-05-26T06:48:56.543Z,100.00
2023-05-26T06:52:57.988Z,100.00
2023-05-26T06:57:00.176Z,100.00
2023-05-26T07:01:03.801Z,100.00
2023-05-26T07:05:05.506Z,100.00
2023-05-26T07:09:07.141Z,99.49
2023-05-26T07:13:08.823Z,94.80
2023-05-26T07:17:12.530Z,95.44
2023-05-26T07:21:16.186Z,95.49
2023-05-26T07:25:17.931Z,90.35
2023-05-26T07:29:19.400Z,88.42
2023-05-26T07:33:20.914Z,86.91
2023-05-26T07:37:22.477Z,88.14
2023-05-26T07:41:24.002Z,82.57
2023-05-26T07:45:25.510Z,81.42
2023-05-26T07:49:27.084Z,82.63
2023-05-26T07:53:28.631Z,81.77
2023-05-26T07:57:30.730Z,85.46
2023-05-26T08:01:33.716Z,77.87
2023-05-26T08:05:35.443Z,83.54
2023-05-26T08:09:37.042Z,79.34
2023-05-26T08:13:38.504Z,77.46
2023-05-26T08:17:40.027Z,76.32
2023-05-26T08:21:41.560Z,76.98
2023-05-26T08:25:44.260Z,73.39
2023-05-26T08:29:46.002Z,73.83
2023-05-26T08:33:47.497Z,70.41
2023-05-26T08:37:48.994Z,69.56
2023-05-26T08:41:57.036Z,71.03
2023-05-26T08:46:02.266Z,67.70
2023-05-26T08:50:09.061Z,66.57
2023-05-26T08:54:10.695Z,70.90
2023-05-26T08:58:13.220Z,66.55
2023-05-26T09:02:15.015Z,68.20
2023-05-26T09:06:16.769Z,65.70
2023-05-26T09:10:24.465Z,65.87
2023-05-26T09:14:26.090Z,65.52
2023-05-26T09:18:27.598Z,62.78
2023-05-26T09:22:34.487Z,57.22
2023-05-26T09:26:36.816Z,58.84
2023-05-26T09:30:43.962Z,62.23
2023-05-26T09:34:45.620Z,62.95
2023-05-26T09:38:47.141Z,54.12
2023-05-26T09:42:53.741Z,52.93
2023-05-26T09:46:55.582Z,49.09
2023-05-26T09:50:58.827Z,46.83
2023-05-26T09:55:00.684Z,44.58
2023-05-26T09:59:06.273Z,44.89
2023-05-26T10:03:09.074Z,43.60
2023-05-26T10:07:12.752Z,43.35
2023-05-26T10:11:14.670Z,41.53
2023-05-26T10:15:17.179Z,42.28
2023-05-26T10:19:19.165Z,41.15
2023-05-26T10:23:29.627Z,39.62
2023-05-26T10:27:45.219Z,36.88
2023-05-26T10:31:47.989Z,38.43
2023-05-26T10:35:58.162Z,38.35
2023-05-26T10:40:02.855Z,38.58
2023-05-26T10:44:05.122Z,39.67
2023-05-26T10:48:09.163Z,38.16
2023-05-26T10:52:14.769Z,37.49
2023-05-26T10:56:18.924Z,38.86
2023-05-26T11:00:27.339Z,37.99
2023-05-26T11:04:50.588Z,36.52
2023-05-26T11:08:53.836Z,38.02
2023-05-26T11:12:58.878Z,36.17
2023-05-26T11:17:02.413Z,35.73
2023-05-26T11:21:06.953Z,36.33
2023-05-26T11:25:09.330Z,37.43
2023-05-26T11:29:10.929Z,37.12
2023-05-26T11:33:16.396Z,36.01
2023-05-26T11:37:19.264Z,33.98
2023-05-26T11:41:26.112Z,33.90
2023-05-26T11:45:27.572Z,34.45
2023-05-26T11:49:29.035Z,33.81
2023-05-26T11:53:31.272Z,32.87
2023-05-26T11:57:35.556Z,32.13
2023-05-26T12:01:37.100Z,30.05
2023-05-26T12:05:39.140Z,29.84
2023-05-26T12:09:41.472Z,29.59
2023-05-26T12:13:44.291Z,29.57
2023-05-26T12:17:46.052Z,29.09
2023-05-26T12:21:49.986Z,29.06
2023-05-26T12:25:51.501Z,30.36
2023-05-26T12:29:53.785Z,31.51
2023-05-26T12:33:55.266Z,32.35
2023-05-26T12:37:56.735Z,31.48
2023-05-26T12:41:58.372Z,29.94
2023-05-26T12:45:59.884Z,30.33
2023-05-26T12:50:03.206Z,30.38
2023-05-26T12:54:06.376Z,29.78
2023-05-26T12:58:07.981Z,30.95
2023-05-26T13:02:09.554Z,30.23
2023-05-26T13:06:12.895Z,28.75
2023-05-26T13:10:14.471Z,29.60
2023-05-26T13:14:15.921Z,27.06
2023-05-26T13:18:17.574Z,28.30
2023-05-26T13:22:19.525Z,29.44
2023-05-26T13:26:21.002Z,28.33
2023-05-26T13:30:22.729Z,28.05
2023-05-26T13:34:24.659Z,28.70
2023-05-26T13:38:26.213Z,28.44
2023-05-26T13:42:28.142Z,30.09
2023-05-26T13:46:29.848Z,29.34
2023-05-26T13:50:31.737Z,28.33
2023-05-26T13:54:33.217Z,28.81
2023-05-26T13:58:34.672Z,29.66
2023-05-26T14:02:36.544Z,30.11
2023-05-26T14:06:38.945Z,29.65
2023-05-26T14:10:40.465Z,28.90
2023-05-26T14:14:42.152Z,28.45
2023-05-26T14:19:05.281Z,27.95
2023-05-26T14:23:05.726Z,27.84
2023-05-26T14:27:08.317Z,27.69
2023-05-26T14:31:10.040Z,28.77
2023-05-26T14:35:11.517Z,28.26
2023-05-26T14:39:14.245Z,28.37
2023-05-26T14:43:16.244Z,28.47
2023-05-26T14:47:17.745Z,27.79
2023-05-26T14:51:19.214Z,27.97
2023-05-26T14:55:22.376Z,29.08
2023-05-26T14:59:23.891Z,28.41
2023-05-26T15:03:26.308Z,28.71
2023-05-26T15:07:27.877Z,28.04
2023-05-26T15:11:29.308Z,28.42
2023-05-26T15:15:32.405Z,29.20
2023-05-26T15:19:33.886Z,30.01
2023-05-26T15:23:35.524Z,29.24
2023-05-26T15:27:37.337Z,29.90
2023-05-26T15:31:38.822Z,29.52
2023-05-26T15:35:40.294Z,29.10
2023-05-26T15:39:41.905Z,29.10
2023-05-26T15:43:43.516Z,32.19
2023-05-26T15:47:44.999Z,30.85
2023-05-26T15:51:49.511Z,30.71
2023-05-26T15:55:51.085Z,31.58
2023-05-26T15:59:52.557Z,31.96
2023-05-26T16:03:54.144Z,30.13
2023-05-26T16:07:55.842Z,30.47
2023-05-26T16:11:57.581Z,31.07
2023-05-26T16:16:00.617Z,31.25
2023-05-26T16:20:02.283Z,30.96
2023-05-26T16:24:04.232Z,32.04
2023-05-26T16:28:08.645Z,32.73
2023-05-26T16:32:11.187Z,32.37
2023-05-26T16:36:17.131Z,33.35
2023-05-26T16:40:18.607Z,33.65
2023-05-26T16:44:20.115Z,34.17
2023-05-26T16:48:21.696Z,32.44
2023-05-26T16:52:23.184Z,32.65
2023-05-26T16:56:24.653Z,33.12
2023-05-26T17:00:27.132Z,32.79
2023-05-26T17:04:28.651Z,33.86
2023-05-26T17:08:49.392Z,32.75
2023-05-26T17:12:50.959Z,33.85
2023-05-26T17:16:52.490Z,33.65
2023-05-26T17:20:54.294Z,34.93
2023-05-26T17:24:56.305Z,34.14
2023-05-26T17:28:57.786Z,34.45
2023-05-26T17:32:59.362Z,35.69
2023-05-26T17:37:00.989Z,36.34
2023-05-26T17:41:02.480Z,36.85
2023-05-26T17:45:04.792Z,37.38
2023-05-26T17:49:06.264Z,38.49
2023-05-26T17:53:07.774Z,39.87
2023-05-26T17:57:12.070Z,40.67
2023-05-26T18:01:13.630Z,41.10
2023-05-26T18:05:15.247Z,42.14
2023-05-26T18:09:17.408Z,41.44
2023-05-26T18:13:18.884Z,41.71
2023-05-26T18:17:20.414Z,42.78
2023-05-26T18:21:22.015Z,43.91
2023-05-26T18:25:24.486Z,45.50
2023-05-26T18:29:25.963Z,45.41
2023-05-26T18:33:27.523Z,46.95
2023-05-26T18:37:29.883Z,47.04
2023-05-26T18:41:31.745Z,48.84
2023-05-26T18:45:33.230Z,50.79
2023-05-26T18:49:34.720Z,51.01
2023-05-26T18:53:37.108Z,52.06
2023-05-26T18:57:38.746Z,53.49
2023-05-26T19:01:40.445Z,54.75
2023-05-26T19:05:41.983Z,56.89
2023-05-26T19:09:43.504Z,56.89
2023-05-26T19:13:44.956Z,59.25
2023-05-26T19:17:46.599Z,58.07
2023-05-26T19:21:48.166Z,58.92
2023-05-26T19:25:49.600Z,59.38
2023-05-26T19:29:51.241Z,61.46
2023-05-26T19:33:53.023Z,60.43
2023-05-26T19:37:54.647Z,61.73
2023-05-26T19:41:56.238Z,63.10
2023-05-26T19:45:57.903Z,62.88
2023-05-26T19:49:59.806Z,62.65
2023-05-26T19:54:01.288Z,64.29
2023-05-26T19:58:02.937Z,64.79
2023-05-26T20:02:04.703Z,65.30
2023-05-26T20:06:12.252Z,66.44
2023-05-26T20:10:13.823Z,67.32
2023-05-26T20:14:15.524Z,70.34
2023-05-26T20:18:16.969Z,67.97
2023-05-26T20:22:18.586Z,69.96
2023-05-26T20:26:20.135Z,71.97
2023-05-26T20:30:22.035Z,71.24
2023-05-26T20:34:23.556Z,72.32
2023-05-26T20:38:25.056Z,72.07
2023-05-26T20:42:30.264Z,72.92
2023-05-26T20:46:32.194Z,73.96
2023-05-26T20:50:33.741Z,76.34
2023-05-26T20:54:35.965Z,76.89
2023-05-26T20:58:37.507Z,76.27
2023-05-26T21:02:39.170Z,77.17
2023-05-26T21:06:41.128Z,77.23
2023-05-26T21:10:42.677Z,79.02
2023-05-26T21:14:46.457Z,79.95
2023-05-26T21:18:48.034Z,82.02
2023-05-26T21:22:49.643Z,82.77
2023-05-26T21:26:54.367Z,82.99
2023-05-26T21:30:55.992Z,83.78
2023-05-26T21:34:57.654Z,84.47
2023-05-26T21:38:59.160Z,85.87
2023-05-26T21:43:02.436Z,84.69
2023-05-26T21:47:04.032Z,83.25
2023-05-26T21:51:05.651Z,84.00
2023-05-26T21:55:10.030Z,84.42
2023-05-26T21:59:12.288Z,85.29
2023-05-26T22:03:14.016Z,85.04
2023-05-26T22:07:15.628Z,86.94
2023-05-26T22:11:17.563Z,86.71
2023-05-26T22:15:19.028Z,85.46
2023-05-26T22:19:20.676Z,88.38
2023-05-26T22:23:22.253Z,87.88
2023-05-26T22:27:23.890Z,88.56
2023-05-26T22:31:25.771Z,90.34
2023-05-26T22:35:27.287Z,89.84
2023-05-26T22:39:28.846Z,92.80
2023-05-26T22:43:30.322Z,92.51
2023-05-26T22:47:41.439Z,92.84
2023-05-26T22:51:43.120Z,92.88
2023-05-26T22:55:51.193Z,94.65
2023-05-26T22:59:58.601Z,95.20
2023-05-26T23:04:00.471Z,97.10
2023-05-26T23:08:02.159Z,95.35
2023-05-26T23:12:04.059Z,96.37
2023-05-26T23:16:05.795Z,97.28
2023-05-26T23:20:08.112Z,98.03
2023-05-26T23:24:10.218Z,99.87
2023-05-26T23:28:11.727Z,99.56
2023-05-26T23:32:13.251Z,100.00
2023-05-26T23:36:14.942Z,100.00
2023-05-26T23:40:16.490Z,100.00
2023-05-26T23:44:17.963Z,100.00
2023-05-26T23:48:19.527Z,100.00
2023-05-26T23:52:21.013Z,100.00
2023-05-26T23:56:22.513Z,100.00
